Wetterdaten: Woche 26.06.17 - 02.07.17 (KW26)
Datum Zeit Temperatur Luftfeuchte Luftdruck Niederschlag Windrichtung Sonnenschein Solar Wind
26.06.2017 00:00 17,8 C 73 % 1012,9 hPa 0,0 l/m N 0,00 h 0 W/m 2,5 km/h (1 Bft)
26.06.2017 01:00 17,1 C 76 % 1013,2 hPa 0,0 l/m N 0,00 h 0 W/m 0,1 km/h (0 Bft)
26.06.2017 02:00 16,7 C 82 % 1013,1 hPa 0,0 l/m N 0,00 h 0 W/m 0,0 km/h (0 Bft)
26.06.2017 03:00 16,5 C 83 % 1013,0 hPa 0,0 l/m N 0,00 h 0 W/m 0,0 km/h (0 Bft)
26.06.2017 04:00 16,0 C 83 % 1012,5 hPa 0,0 l/m N 0,00 h 0 W/m 0,0 km/h (0 Bft)
26.06.2017 05:00 15,0 C 85 % 1012,3 hPa 0,0 l/m N 0,33 h 18 W/m 0,0 km/h (0 Bft)
26.06.2017 06:00 14,6 C 88 % 1012,2 hPa 0,0 l/m N 1,00 h 109 W/m 0,0 km/h (0 Bft)
26.06.2017 07:00 17,3 C 84 % 1012,1 hPa 0,0 l/m W 0,67 h 229 W/m 2,1 km/h (1 Bft)
26.06.2017 08:00 20,1 C 76 % 1012,0 hPa 0,0 l/m W-SW 1,00 h 440 W/m 8,6 km/h (2 Bft)
26.06.2017 09:00 21,7 C 69 % 1011,5 hPa 0,0 l/m SW 0,83 h 460 W/m 9,9 km/h (2 Bft)
26.06.2017 10:00 23,2 C 62 % 1011,0 hPa 0,0 l/m SW 0,83 h 595 W/m 11,8 km/h (2 Bft)
26.06.2017 11:00 24,4 C 58 % 1010,7 hPa 0,0 l/m SW 1,00 h 819 W/m 11,1 km/h (2 Bft)
26.06.2017 12:00 26,0 C 55 % 1010,2 hPa 0,0 l/m S-SW 1,00 h 874 W/m 9,7 km/h (2 Bft)
26.06.2017 13:00 26,8 C 54 % 1009,4 hPa 0,0 l/m SW 1,00 h 895 W/m 10,2 km/h (2 Bft)
26.06.2017 14:00 28,4 C 48 % 1008,6 hPa 0,0 l/m S-SW 1,00 h 854 W/m 9,4 km/h (2 Bft)
26.06.2017 15:00 29,1 C 44 % 1007,9 hPa 0,0 l/m S 1,00 h 768 W/m 9,7 km/h (2 Bft)
26.06.2017 16:00 29,5 C 42 % 1007,3 hPa 0,0 l/m SW 1,00 h 648 W/m 8,5 km/h (2 Bft)
26.06.2017 17:00 30,1 C 39 % 1006,6 hPa 0,0 l/m O 1,00 h 518 W/m 10,1 km/h (2 Bft)
26.06.2017 18:00 29,4 C 39 % 1006,0 hPa 0,0 l/m O-NO 0,58 h 259 W/m 6,9 km/h (2 Bft)
26.06.2017 19:00 28,1 C 43 % 1005,8 hPa 0,0 l/m O-NO 0,00 h 112 W/m 6,7 km/h (2 Bft)
26.06.2017 20:00 26,4 C 50 % 1005,7 hPa 0,0 l/m O 0,00 h 48 W/m 3,5 km/h (1 Bft)
26.06.2017 21:00 23,3 C 64 % 1006,3 hPa 0,0 l/m N 0,08 h 11 W/m 0,0 km/h (0 Bft)
26.06.2017 22:00 22,2 C 67 % 1006,8 hPa 0,0 l/m W-SW 0,00 h 0 W/m 12,1 km/h (2 Bft)
26.06.2017 23:00 20,0 C 77 % 1007,9 hPa 0,0 l/m W 0,00 h 0 W/m 32,6 km/h (5 Bft)
27.06.2017 00:00 18,5 C 85 % 1008,5 hPa 0,0 l/m SW 0,00 h 0 W/m 16,8 km/h (3 Bft)
27.06.2017 01:00 17,2 C 91 % 1008,6 hPa 0,4 l/m W-SW 0,00 h 0 W/m 20,9 km/h (4 Bft)
27.06.2017 02:00 16,5 C 93 % 1008,4 hPa 0,4 l/m W-SW 0,00 h 0 W/m 5,0 km/h (1 Bft)
27.06.2017 03:00 16,5 C 95 % 1008,1 hPa 0,2 l/m W-SW 0,00 h 0 W/m 2,8 km/h (1 Bft)
27.06.2017 04:00 16,3 C 96 % 1007,9 hPa 1,2 l/m N 0,00 h 0 W/m 0,0 km/h (0 Bft)
27.06.2017 05:00 16,2 C 97 % 1007,5 hPa 0,2 l/m W-SW 0,00 h 7 W/m 1,7 km/h (1 Bft)
27.06.2017 06:00 16,2 C 97 % 1007,2 hPa 0,0 l/m N 0,00 h 31 W/m 2,0 km/h (1 Bft)
27.06.2017 07:00 16,6 C 97 % 1007,1 hPa 0,0 l/m N 0,00 h 107 W/m 0,3 km/h (0 Bft)
27.06.2017 08:00 17,5 C 96 % 1007,0 hPa 0,0 l/m N 0,00 h 176 W/m 1,7 km/h (1 Bft)
27.06.2017 09:00 19,7 C 87 % 1006,6 hPa 0,0 l/m SO 0,75 h 542 W/m 10,1 km/h (2 Bft)
27.06.2017 10:00 20,9 C 80 % 1006,4 hPa 0,0 l/m S-SO 0,75 h 626 W/m 11,2 km/h (2 Bft)
27.06.2017 11:00 22,6 C 75 % 1005,9 hPa 0,0 l/m SW 0,92 h 686 W/m 10,2 km/h (2 Bft)
27.06.2017 12:00 22,9 C 73 % 1005,5 hPa 0,0 l/m SW 0,42 h 466 W/m 7,6 km/h (2 Bft)
27.06.2017 13:00 23,8 C 65 % 1004,9 hPa 0,0 l/m W-SW 0,67 h 617 W/m 12,5 km/h (3 Bft)
27.06.2017 14:00 24,7 C 63 % 1004,3 hPa 0,0 l/m W-SW 0,58 h 472 W/m 11,8 km/h (2 Bft)
27.06.2017 15:00 24,7 C 63 % 1004,0 hPa 0,0 l/m SW 0,58 h 509 W/m 8,9 km/h (2 Bft)
27.06.2017 16:00 25,8 C 58 % 1003,3 hPa 0,0 l/m SW 0,83 h 545 W/m 12,5 km/h (3 Bft)
27.06.2017 17:00 26,2 C 56 % 1002,7 hPa 0,0 l/m SW 0,75 h 439 W/m 11,6 km/h (2 Bft)
27.06.2017 18:00 26,3 C 56 % 1002,1 hPa 0,0 l/m S-SW 0,67 h 312 W/m 9,9 km/h (2 Bft)
27.06.2017 19:00 24,8 C 60 % 1001,7 hPa 0,0 l/m SW 0,00 h 99 W/m 1,9 km/h (1 Bft)
27.06.2017 20:00 23,3 C 68 % 1001,4 hPa 0,0 l/m N 0,00 h 18 W/m 0,0 km/h (0 Bft)
27.06.2017 21:00 21,8 C 75 % 1000,9 hPa 0,0 l/m N 0,00 h 9 W/m 0,3 km/h (0 Bft)
27.06.2017 22:00 21,0 C 77 % 1000,8 hPa 0,0 l/m SW 0,00 h 0 W/m 1,3 km/h (1 Bft)
27.06.2017 23:00 20,5 C 79 % 1000,6 hPa 0,0 l/m N 0,00 h 0 W/m 1,6 km/h (1 Bft)
28.06.2017 00:00 20,4 C 79 % 1000,3 hPa 0,0 l/m W-NW 0,00 h 0 W/m 6,6 km/h (2 Bft)
28.06.2017 01:00 19,3 C 85 % 999,1 hPa 0,0 l/m N 0,00 h 0 W/m 0,0 km/h (0 Bft)
28.06.2017 02:00 18,7 C 86 % 998,1 hPa 0,0 l/m W-NW 0,00 h 0 W/m 2,7 km/h (1 Bft)
28.06.2017 03:00 18,8 C 87 % 998,3 hPa 0,0 l/m W-NW 0,00 h 0 W/m 10,8 km/h (2 Bft)
28.06.2017 04:00 18,2 C 90 % 998,8 hPa 0,2 l/m W-NW 0,00 h 0 W/m 10,5 km/h (2 Bft)
28.06.2017 05:00 17,2 C 91 % 998,9 hPa 6,0 l/m W-NW 0,00 h 5 W/m 22,1 km/h (4 Bft)
28.06.2017 06:00 16,3 C 94 % 999,3 hPa 0,2 l/m W 0,00 h 13 W/m 18,0 km/h (3 Bft)
28.06.2017 07:00 16,2 C 95 % 999,2 hPa 0,0 l/m SW 0,00 h 33 W/m 4,0 km/h (1 Bft)
28.06.2017 08:00 16,6 C 96 % 999,8 hPa 0,4 l/m W-SW 0,00 h 110 W/m 20,1 km/h (4 Bft)
28.06.2017 09:00 16,3 C 94 % 999,5 hPa 0,0 l/m W-SW 0,00 h 208 W/m 16,9 km/h (3 Bft)
28.06.2017 10:00 16,9 C 92 % 999,2 hPa 0,0 l/m SW 0,25 h 375 W/m 17,0 km/h (3 Bft)
28.06.2017 11:00 19,4 C 83 % 999,1 hPa 0,0 l/m W-SW 0,92 h 833 W/m 22,9 km/h (4 Bft)
28.06.2017 12:00 20,7 C 75 % 998,9 hPa 0,0 l/m W-NW 0,58 h 672 W/m 15,9 km/h (3 Bft)
28.06.2017 13:00 22,1 C 69 % 998,2 hPa 0,0 l/m W 0,83 h 755 W/m 15,6 km/h (3 Bft)
28.06.2017 14:00 23,5 C 64 % 997,3 hPa 0,0 l/m SW 1,00 h 889 W/m 16,2 km/h (3 Bft)
28.06.2017 15:00 24,2 C 60 % 996,4 hPa 0,0 l/m W-SW 0,92 h 689 W/m 10,4 km/h (2 Bft)
28.06.2017 16:00 24,0 C 58 % 995,5 hPa 0,0 l/m S-SW 0,33 h 420 W/m 9,9 km/h (2 Bft)
28.06.2017 17:00 23,8 C 61 % 995,0 hPa 0,0 l/m O-SO 0,25 h 298 W/m 9,9 km/h (2 Bft)
28.06.2017 18:00 23,5 C 60 % 994,3 hPa 0,0 l/m S-SO 0,25 h 205 W/m 10,9 km/h (2 Bft)
28.06.2017 19:00 22,0 C 68 % 993,8 hPa 0,0 l/m S-SO 0,00 h 45 W/m 2,7 km/h (1 Bft)
28.06.2017 20:00 20,1 C 77 % 993,4 hPa 0,0 l/m N 0,00 h 16 W/m 0,1 km/h (0 Bft)
28.06.2017 21:00 18,1 C 83 % 994,2 hPa 28,8 l/m SW 0,00 h 7 W/m 21,2 km/h (4 Bft)
28.06.2017 22:00 15,1 C 95 % 995,3 hPa 5,2 l/m W-NW 0,00 h 0 W/m 17,7 km/h (3 Bft)
28.06.2017 23:00 15,1 C 97 % 995,1 hPa 1,6 l/m W-NW 0,00 h 0 W/m 12,5 km/h (3 Bft)
29.06.2017 00:00 15,4 C 96 % 994,9 hPa 0,0 l/m W-SW 0,00 h 0 W/m 13,8 km/h (3 Bft)
29.06.2017 01:00 14,9 C 97 % 995,0 hPa 1,6 l/m W-SW 0,00 h 0 W/m 15,2 km/h (3 Bft)
29.06.2017 02:00 14,0 C 97 % 995,2 hPa 1,8 l/m W 0,00 h 0 W/m 21,4 km/h (4 Bft)
29.06.2017 03:00 13,5 C 97 % 995,5 hPa 1,2 l/m W-SW 0,00 h 0 W/m 18,1 km/h (3 Bft)
29.06.2017 04:00 13,6 C 98 % 995,8 hPa 1,8 l/m W-SW 0,00 h 0 W/m 12,8 km/h (3 Bft)
29.06.2017 05:00 13,5 C 98 % 996,0 hPa 1,6 l/m W-SW 0,00 h 7 W/m 14,4 km/h (3 Bft)
29.06.2017 06:00 13,4 C 98 % 996,4 hPa 0,2 l/m W-SW 0,00 h 24 W/m 13,8 km/h (3 Bft)
29.06.2017 07:00 13,4 C 98 % 996,9 hPa 0,2 l/m W-SW 0,00 h 57 W/m 15,6 km/h (3 Bft)
29.06.2017 08:00 13,9 C 97 % 997,4 hPa 0,0 l/m W-SW 0,17 h 204 W/m 15,8 km/h (3 Bft)
29.06.2017 09:00 15,0 C 93 % 997,7 hPa 0,0 l/m W-SW 0,17 h 292 W/m 17,7 km/h (3 Bft)
29.06.2017 10:00 16,6 C 86 % 997,7 hPa 0,0 l/m W-SW 0,67 h 574 W/m 19,9 km/h (4 Bft)
29.06.2017 11:00 17,9 C 78 % 997,8 hPa 0,0 l/m W 0,75 h 715 W/m 22,1 km/h (4 Bft)
29.06.2017 12:00 19,5 C 71 % 997,8 hPa 0,0 l/m W-SW 0,67 h 766 W/m 19,7 km/h (3 Bft)
29.06.2017 13:00 19,6 C 68 % 997,8 hPa 0,0 l/m W 0,50 h 566 W/m 15,8 km/h (3 Bft)
29.06.2017 14:00 20,3 C 63 % 997,9 hPa 0,0 l/m W 0,33 h 469 W/m 18,1 km/h (3 Bft)
29.06.2017 15:00 19,0 C 72 % 998,2 hPa 0,2 l/m W 0,58 h 576 W/m 16,4 km/h (3 Bft)
29.06.2017 16:00 19,1 C 67 % 998,5 hPa 0,0 l/m SW 0,17 h 301 W/m 25,2 km/h (4 Bft)
29.06.2017 17:00 17,2 C 80 % 999,4 hPa 0,0 l/m SW 0,08 h 154 W/m 23,6 km/h (4 Bft)
29.06.2017 18:00 16,0 C 88 % 1000,3 hPa 0,0 l/m SW 0,00 h 151 W/m 29,9 km/h (5 Bft)
29.06.2017 19:00 15,0 C 92 % 1000,8 hPa 0,0 l/m SW 0,00 h 47 W/m 19,8 km/h (4 Bft)
29.06.2017 20:00 14,8 C 93 % 1001,2 hPa 0,0 l/m SW 0,58 h 76 W/m 19,2 km/h (3 Bft)
29.06.2017 21:00 14,1 C 92 % 1002,1 hPa 0,0 l/m W-SW 0,08 h 10 W/m 17,4 km/h (3 Bft)
29.06.2017 22:00 13,2 C 88 % 1003,2 hPa 0,8 l/m W-SW 0,00 h 0 W/m 17,8 km/h (3 Bft)
29.06.2017 23:00 12,1 C 92 % 1004,0 hPa 0,0 l/m W-SW 0,00 h 0 W/m 14,9 km/h (3 Bft)
30.06.2017 00:00 12,0 C 91 % 1004,3 hPa 0,0 l/m SW 0,00 h 0 W/m 14,8 km/h (3 Bft)
30.06.2017 01:00 11,6 C 95 % 1004,2 hPa 0,0 l/m SW 0,00 h 0 W/m 11,7 km/h (2 Bft)
30.06.2017 02:00 11,4 C 95 % 1004,3 hPa 0,0 l/m SW 0,00 h 0 W/m 6,4 km/h (2 Bft)
30.06.2017 03:00 11,2 C 94 % 1004,7 hPa 0,0 l/m SW 0,00 h 0 W/m 11,8 km/h (2 Bft)
30.06.2017 04:00 11,3 C 93 % 1004,7 hPa 0,0 l/m W-SW 0,00 h 0 W/m 15,7 km/h (3 Bft)
30.06.2017 05:00 11,3 C 91 % 1005,1 hPa 0,0 l/m W-SW 0,08 h 11 W/m 11,5 km/h (2 Bft)
30.06.2017 06:00 11,4 C 92 % 1005,5 hPa 0,0 l/m W-SW 0,00 h 42 W/m 12,1 km/h (2 Bft)
30.06.2017 07:00 12,6 C 91 % 1005,9 hPa 0,0 l/m SW 0,75 h 252 W/m 14,5 km/h (3 Bft)
30.06.2017 08:00 14,6 C 83 % 1006,3 hPa 0,0 l/m SW 0,58 h 321 W/m 17,3 km/h (3 Bft)
30.06.2017 09:00 15,9 C 76 % 1006,3 hPa 0,0 l/m W-SW 0,58 h 436 W/m 17,3 km/h (3 Bft)
30.06.2017 10:00 17,0 C 69 % 1006,4 hPa 0,0 l/m W-SW 0,58 h 529 W/m 20,6 km/h (4 Bft)
30.06.2017 11:00 18,2 C 62 % 1006,5 hPa 0,0 l/m SW 1,00 h 881 W/m 23,0 km/h (4 Bft)
30.06.2017 12:00 19,2 C 60 % 1006,2 hPa 0,0 l/m W-SW 0,92 h 872 W/m 21,0 km/h (4 Bft)
30.06.2017 13:00 19,5 C 57 % 1005,9 hPa 0,0 l/m W-SW 0,25 h 499 W/m 18,1 km/h (3 Bft)
30.06.2017 14:00 20,8 C 54 % 1005,8 hPa 0,0 l/m W-SW 0,92 h 890 W/m 18,1 km/h (3 Bft)
30.06.2017 15:00 21,6 C 48 % 1005,2 hPa 0,0 l/m SW 1,00 h 791 W/m 20,2 km/h (4 Bft)
30.06.2017 16:00 22,1 C 44 % 1004,6 hPa 0,0 l/m W-SW 1,00 h 677 W/m 23,4 km/h (4 Bft)
30.06.2017 17:00 22,2 C 42 % 1004,6 hPa 0,0 l/m W-SW 1,00 h 565 W/m 25,5 km/h (4 Bft)
30.06.2017 18:00 21,7 C 46 % 1004,7 hPa 0,0 l/m W-SW 1,00 h 381 W/m 23,2 km/h (4 Bft)
30.06.2017 19:00 19,8 C 52 % 1004,6 hPa 0,0 l/m SW 0,33 h 100 W/m 12,6 km/h (3 Bft)
30.06.2017 20:00 17,6 C 60 % 1005,2 hPa 0,0 l/m SW 0,00 h 33 W/m 7,2 km/h (2 Bft)
30.06.2017 21:00 16,2 C 68 % 1006,1 hPa 0,0 l/m W 0,00 h 7 W/m 2,3 km/h (1 Bft)
30.06.2017 22:00 15,4 C 75 % 1007,0 hPa 0,0 l/m W-SW 0,00 h 0 W/m 8,3 km/h (2 Bft)
30.06.2017 23:00 14,2 C 80 % 1007,5 hPa 0,0 l/m W-NW 0,00 h 0 W/m 5,0 km/h (1 Bft)
01.07.2017 00:00 13,9 C 80 % 1007,8 hPa 0,0 l/m W 0,00 h 0 W/m 12,4 km/h (3 Bft)
01.07.2017 01:00 13,7 C 83 % 1008,2 hPa 0,0 l/m W-SW 0,00 h 0 W/m 12,4 km/h (3 Bft)
01.07.2017 02:00 13,0 C 85 % 1008,2 hPa 0,0 l/m W-SW 0,00 h 0 W/m 8,6 km/h (2 Bft)
01.07.2017 03:00 13,1 C 85 % 1008,4 hPa 0,0 l/m W-SW 0,00 h 0 W/m 11,0 km/h (2 Bft)
01.07.2017 04:00 13,3 C 84 % 1008,7 hPa 0,0 l/m W-SW 0,00 h 0 W/m 16,0 km/h (3 Bft)
01.07.2017 05:00 13,1 C 81 % 1008,9 hPa 0,0 l/m W-SW 0,08 h 16 W/m 20,5 km/h (4 Bft)
01.07.2017 06:00 12,4 C 82 % 1009,5 hPa 0,0 l/m W-SW 0,58 h 71 W/m 17,2 km/h (3 Bft)
01.07.2017 07:00 12,7 C 83 % 1010,1 hPa 0,0 l/m W-SW 0,00 h 100 W/m 19,3 km/h (3 Bft)
01.07.2017 08:00 13,7 C 80 % 1010,5 hPa 0,0 l/m W-SW 0,50 h 355 W/m 21,3 km/h (4 Bft)
01.07.2017 09:00 15,1 C 75 % 1010,5 hPa 0,0 l/m W-SW 0,58 h 471 W/m 28,0 km/h (4 Bft)
01.07.2017 10:00 16,4 C 70 % 1010,5 hPa 0,0 l/m W-SW 0,58 h 685 W/m 30,0 km/h (5 Bft)
01.07.2017 11:00 16,9 C 68 % 1010,5 hPa 0,0 l/m W-SW 0,33 h 455 W/m 29,8 km/h (5 Bft)
01.07.2017 12:00 17,0 C 68 % 1010,7 hPa 0,0 l/m W-SW 0,25 h 396 W/m 25,9 km/h (4 Bft)
01.07.2017 13:00 18,7 C 62 % 1010,6 hPa 0,0 l/m W-SW 0,75 h 846 W/m 29,6 km/h (5 Bft)
01.07.2017 14:00 19,6 C 58 % 1010,5 hPa 0,0 l/m W-SW 0,75 h 785 W/m 27,6 km/h (4 Bft)
01.07.2017 15:00 19,2 C 60 % 1010,7 hPa 0,0 l/m W 0,42 h 449 W/m 19,4 km/h (3 Bft)
01.07.2017 16:00 18,4 C 58 % 1011,0 hPa 0,0 l/m W 0,00 h 273 W/m 23,3 km/h (4 Bft)
01.07.2017 17:00 18,4 C 60 % 1011,5 hPa 0,0 l/m W 0,33 h 279 W/m 19,6 km/h (3 Bft)
01.07.2017 18:00 18,7 C 61 % 1011,6 hPa 0,0 l/m W 0,75 h 384 W/m 22,1 km/h (4 Bft)
01.07.2017 19:00 18,0 C 64 % 1012,0 hPa 0,0 l/m W 0,58 h 162 W/m 20,4 km/h (4 Bft)
01.07.2017 20:00 16,3 C 71 % 1012,6 hPa 0,0 l/m W-SW 0,08 h 43 W/m 18,8 km/h (3 Bft)
01.07.2017 21:00 15,1 C 75 % 1013,5 hPa 0,0 l/m W-SW 0,08 h 9 W/m 14,5 km/h (3 Bft)
01.07.2017 22:00 15,0 C 77 % 1014,1 hPa 0,0 l/m W-SW 0,00 h 0 W/m 16,5 km/h (3 Bft)
01.07.2017 23:00 14,5 C 79 % 1014,4 hPa 0,0 l/m W-SW 0,00 h 0 W/m 16,2 km/h (3 Bft)
02.07.2017 00:00 14,2 C 80 % 1014,6 hPa 0,0 l/m W-SW 0,00 h 0 W/m 17,3 km/h (3 Bft)
02.07.2017 01:00 13,8 C 83 % 1014,8 hPa 0,0 l/m W 0,00 h 0 W/m 20,2 km/h (4 Bft)
02.07.2017 02:00 13,5 C 87 % 1014,8 hPa 0,0 l/m W-SW 0,00 h 0 W/m 21,3 km/h (4 Bft)
02.07.2017 03:00 13,1 C 90 % 1014,9 hPa 0,0 l/m W-SW 0,00 h 0 W/m 19,2 km/h (3 Bft)
02.07.2017 04:00 12,8 C 92 % 1015,1 hPa 0,4 l/m W-SW 0,00 h 0 W/m 17,4 km/h (3 Bft)
02.07.2017 05:00 12,5 C 94 % 1015,3 hPa 1,0 l/m W-SW 0,00 h 6 W/m 13,0 km/h (3 Bft)
02.07.2017 06:00 12,4 C 95 % 1015,6 hPa 0,4 l/m W-SW 0,00 h 20 W/m 12,9 km/h (3 Bft)
02.07.2017 07:00 12,6 C 96 % 1016,2 hPa 0,8 l/m W-SW 0,00 h 48 W/m 8,6 km/h (2 Bft)
02.07.2017 08:00 12,8 C 97 % 1016,6 hPa 0,4 l/m W 0,00 h 83 W/m 9,4 km/h (2 Bft)
02.07.2017 09:00 13,5 C 97 % 1017,0 hPa 0,0 l/m W 0,00 h 224 W/m 10,5 km/h (2 Bft)
02.07.2017 10:00 14,7 C 95 % 1017,3 hPa 0,0 l/m W 0,00 h 277 W/m 10,2 km/h (2 Bft)
02.07.2017 11:00 15,2 C 93 % 1017,7 hPa 0,2 l/m W 0,00 h 177 W/m 8,3 km/h (2 Bft)
02.07.2017 12:00 15,2 C 94 % 1018,0 hPa 0,0 l/m W 0,00 h 247 W/m 11,0 km/h (2 Bft)
02.07.2017 13:00 16,6 C 91 % 1018,2 hPa 0,0 l/m W-SW 0,42 h 459 W/m 15,4 km/h (3 Bft)
02.07.2017 14:00 16,5 C 89 % 1018,4 hPa 0,0 l/m W-SW 0,00 h 284 W/m 14,2 km/h (3 Bft)
02.07.2017 15:00 15,9 C 91 % 1018,7 hPa 0,2 l/m W-SW 0,00 h 188 W/m 15,6 km/h (3 Bft)
02.07.2017 16:00 16,1 C 93 % 1018,7 hPa 0,4 l/m SW 0,00 h 181 W/m 11,9 km/h (2 Bft)
02.07.2017 17:00 16,4 C 94 % 1018,8 hPa 0,0 l/m W-SW 0,08 h 240 W/m 12,2 km/h (2 Bft)
02.07.2017 18:00 16,5 C 91 % 1018,8 hPa 0,0 l/m W-SW 0,00 h 147 W/m 13,8 km/h (3 Bft)
02.07.2017 19:00 15,3 C 94 % 1019,3 hPa 0,6 l/m W 0,00 h 26 W/m 8,6 km/h (2 Bft)
02.07.2017 20:00 14,9 C 96 % 1019,7 hPa 0,0 l/m W 0,00 h 15 W/m 1,3 km/h (1 Bft)
02.07.2017 21:00 14,3 C 96 % 1020,2 hPa 0,2 l/m W 0,00 h 5 W/m 2,8 km/h (1 Bft)
02.07.2017 22:00 14,1 C 96 % 1020,5 hPa 0,0 l/m W 0,00 h 0 W/m 2,1 km/h (1 Bft)
02.07.2017 23:00 13,8 C 96 % 1020,8 hPa 0,6 l/m W 0,00 h 0 W/m 3,6 km/h (1 Bft)
Min-Datum _ 30.06.17 26.06.17 28.06.17 - - - - 26.06.17
_ Min-Zeit 03:05 17:50 21:05 - - - - 00:00
Minimum _ 11,1 C 37 % 993,2 hPa - - - - 0,0 km/h (0 Bft)
Max-Datum _ 26.06.17 28.06.17 02.07.17 28.06.17 - 26.06.17 29.06.17 26.06.17
_ Max-Zeit 17:45 23:50 23:50 21:40 - 05:40 12:15 22:45
Maximum _ 30,3 C 98 % 1020,9 hPa 28,8 l/m - 0,08 h 1234 W/m 49,9 km/h
W-SW (6 Bft)
Durchschnitt _ 17,8 C 78 % 1006,3 hPa #59,4 l/m W-SW #46:30 h 332 W/m 13,0 km/h (3 Bft)